sensor_id;sensor_type;location;lat;lon;timestamp;P1;durP1;ratioP1;P2;durP2;ratioP2
81396;SDS011;70852;49.908;8.126;2023-12-20T00:00:25;3.90;;;1.90;;
81396;SDS011;70852;49.908;8.126;2023-12-20T00:02:55;4.15;;;1.95;;
81396;SDS011;70852;49.908;8.126;2023-12-20T00:05:23;3.60;;;1.67;;
81396;SDS011;70852;49.908;8.126;2023-12-20T00:07:48;4.47;;;2.38;;
81396;SDS011;70852;49.908;8.126;2023-12-20T00:10:13;4.57;;;1.90;;
81396;SDS011;70852;49.908;8.126;2023-12-20T00:12:39;4.32;;;2.25;;
81396;SDS011;70852;49.908;8.126;2023-12-20T00:15:06;5.63;;;2.05;;
81396;SDS011;70852;49.908;8.126;2023-12-20T00:17:32;3.22;;;1.92;;
81396;SDS011;70852;49.908;8.126;2023-12-20T00:19:57;4.38;;;2.03;;
81396;SDS011;70852;49.908;8.126;2023-12-20T00:22:23;4.57;;;2.10;;
81396;SDS011;70852;49.908;8.126;2023-12-20T00:24:48;5.25;;;1.80;;
81396;SDS011;70852;49.908;8.126;2023-12-20T00:27:13;4.68;;;2.00;;
81396;SDS011;70852;49.908;8.126;2023-12-20T00:29:38;3.90;;;1.75;;
81396;SDS011;70852;49.908;8.126;2023-12-20T00:32:04;4.20;;;1.70;;
81396;SDS011;70852;49.908;8.126;2023-12-20T00:34:29;4.30;;;2.10;;
81396;SDS011;70852;49.908;8.126;2023-12-20T00:36:55;3.83;;;1.90;;
81396;SDS011;70852;49.908;8.126;2023-12-20T00:39:22;5.18;;;2.50;;
81396;SDS011;70852;49.908;8.126;2023-12-20T00:41:50;4.35;;;1.80;;
81396;SDS011;70852;49.908;8.126;2023-12-20T00:44:15;3.30;;;1.63;;
81396;SDS011;70852;49.908;8.126;2023-12-20T00:46:41;3.53;;;1.80;;
81396;SDS011;70852;49.908;8.126;2023-12-20T00:49:06;4.88;;;2.35;;
81396;SDS011;70852;49.908;8.126;2023-12-20T00:51:31;3.97;;;1.67;;
81396;SDS011;70852;49.908;8.126;2023-12-20T00:53:59;4.15;;;1.92;;
81396;SDS011;70852;49.908;8.126;2023-12-20T00:56:27;4.18;;;1.85;;
81396;SDS011;70852;49.908;8.126;2023-12-20T00:58:52;3.78;;;1.90;;
81396;SDS011;70852;49.908;8.126;2023-12-20T01:01:20;3.92;;;2.00;;
81396;SDS011;70852;49.908;8.126;2023-12-20T01:03:47;3.65;;;1.67;;
81396;SDS011;70852;49.908;8.126;2023-12-20T01:06:13;5.90;;;1.95;;
81396;SDS011;70852;49.908;8.126;2023-12-20T01:08:38;3.28;;;1.77;;
81396;SDS011;70852;49.908;8.126;2023-12-20T01:11:04;4.55;;;2.08;;
81396;SDS011;70852;49.908;8.126;2023-12-20T01:13:30;3.53;;;1.65;;
81396;SDS011;70852;49.908;8.126;2023-12-20T01:15:58;3.17;;;1.33;;
81396;SDS011;70852;49.908;8.126;2023-12-20T01:18:26;3.00;;;1.48;;
81396;SDS011;70852;49.908;8.126;2023-12-20T01:20:51;5.43;;;1.98;;
81396;SDS011;70852;49.908;8.126;2023-12-20T01:23:17;2.78;;;1.40;;
81396;SDS011;70852;49.908;8.126;2023-12-20T01:25:44;3.65;;;1.73;;
81396;SDS011;70852;49.908;8.126;2023-12-20T01:28:10;3.33;;;1.40;;
81396;SDS011;70852;49.908;8.126;2023-12-20T01:30:35;2.70;;;1.30;;
81396;SDS011;70852;49.908;8.126;2023-12-20T01:33:00;3.03;;;1.40;;
81396;SDS011;70852;49.908;8.126;2023-12-20T01:35:26;3.95;;;1.30;;
81396;SDS011;70852;49.908;8.126;2023-12-20T01:37:53;2.45;;;1.33;;
81396;SDS011;70852;49.908;8.126;2023-12-20T01:40:22;4.68;;;1.67;;
81396;SDS011;70852;49.908;8.126;2023-12-20T01:43:06;3.35;;;1.55;;
81396;SDS011;70852;49.908;8.126;2023-12-20T01:45:37;2.92;;;1.25;;
81396;SDS011;70852;49.908;8.126;2023-12-20T01:48:05;3.50;;;1.55;;
81396;SDS011;70852;49.908;8.126;2023-12-20T01:50:32;2.90;;;1.50;;
81396;SDS011;70852;49.908;8.126;2023-12-20T01:53:01;2.30;;;0.90;;
81396;SDS011;70852;49.908;8.126;2023-12-20T01:55:29;3.33;;;1.30;;
81396;SDS011;70852;49.908;8.126;2023-12-20T01:57:56;2.28;;;1.08;;
81396;SDS011;70852;49.908;8.126;2023-12-20T02:00:23;2.97;;;1.25;;
81396;SDS011;70852;49.908;8.126;2023-12-20T02:02:51;1.90;;;0.90;;
81396;SDS011;70852;49.908;8.126;2023-12-20T02:05:18;2.80;;;1.33;;
81396;SDS011;70852;49.908;8.126;2023-12-20T02:07:47;2.65;;;1.20;;
81396;SDS011;70852;49.908;8.126;2023-12-20T02:10:12;2.47;;;1.20;;
81396;SDS011;70852;49.908;8.126;2023-12-20T02:12:40;1.95;;;0.90;;
81396;SDS011;70852;49.908;8.126;2023-12-20T02:15:08;2.25;;;0.98;;
81396;SDS011;70852;49.908;8.126;2023-12-20T02:17:33;3.40;;;1.38;;
81396;SDS011;70852;49.908;8.126;2023-12-20T02:19:59;1.92;;;1.05;;
81396;SDS011;70852;49.908;8.126;2023-12-20T02:22:27;2.78;;;1.33;;
81396;SDS011;70852;49.908;8.126;2023-12-20T02:24:52;2.25;;;1.08;;
81396;SDS011;70852;49.908;8.126;2023-12-20T02:27:18;1.90;;;1.00;;
81396;SDS011;70852;49.908;8.126;2023-12-20T02:29:44;1.95;;;1.13;;
81396;SDS011;70852;49.908;8.126;2023-12-20T02:32:12;2.20;;;1.10;;
81396;SDS011;70852;49.908;8.126;2023-12-20T02:34:38;2.53;;;1.13;;
81396;SDS011;70852;49.908;8.126;2023-12-20T02:37:03;1.65;;;0.90;;
81396;SDS011;70852;49.908;8.126;2023-12-20T02:39:28;1.35;;;0.65;;
81396;SDS011;70852;49.908;8.126;2023-12-20T02:41:54;1.67;;;0.73;;
81396;SDS011;70852;49.908;8.126;2023-12-20T02:44:24;2.28;;;0.88;;
81396;SDS011;70852;49.908;8.126;2023-12-20T02:46:49;2.72;;;1.25;;
81396;SDS011;70852;49.908;8.126;2023-12-20T02:49:15;1.90;;;0.90;;
81396;SDS011;70852;49.908;8.126;2023-12-20T02:51:40;1.70;;;0.75;;
81396;SDS011;70852;49.908;8.126;2023-12-20T02:54:08;2.78;;;1.08;;
81396;SDS011;70852;49.908;8.126;2023-12-20T02:56:33;2.20;;;0.80;;
81396;SDS011;70852;49.908;8.126;2023-12-20T02:59:01;1.25;;;0.68;;
81396;SDS011;70852;49.908;8.126;2023-12-20T03:01:27;1.48;;;0.68;;
81396;SDS011;70852;49.908;8.126;2023-12-20T03:03:53;1.88;;;0.82;;
81396;SDS011;70852;49.908;8.126;2023-12-20T03:06:18;2.60;;;0.98;;
81396;SDS011;70852;49.908;8.126;2023-12-20T03:08:46;1.67;;;0.80;;
81396;SDS011;70852;49.908;8.126;2023-12-20T03:11:12;1.33;;;0.65;;
81396;SDS011;70852;49.908;8.126;2023-12-20T03:13:39;2.05;;;0.73;;
81396;SDS011;70852;49.908;8.126;2023-12-20T03:16:11;1.60;;;0.80;;
81396;SDS011;70852;49.908;8.126;2023-12-20T03:18:37;1.75;;;0.77;;
81396;SDS011;70852;49.908;8.126;2023-12-20T03:21:03;1.08;;;0.55;;
81396;SDS011;70852;49.908;8.126;2023-12-20T03:23:29;1.40;;;0.60;;
81396;SDS011;70852;49.908;8.126;2023-12-20T03:25:58;2.22;;;0.85;;
81396;SDS011;70852;49.908;8.126;2023-12-20T03:28:24;1.50;;;0.70;;
81396;SDS011;70852;49.908;8.126;2023-12-20T03:30:51;1.88;;;0.73;;
81396;SDS011;70852;49.908;8.126;2023-12-20T03:33:21;1.67;;;0.82;;
81396;SDS011;70852;49.908;8.126;2023-12-20T03:35:47;2.35;;;0.98;;
81396;SDS011;70852;49.908;8.126;2023-12-20T03:38:15;2.35;;;1.10;;
81396;SDS011;70852;49.908;8.126;2023-12-20T03:40:40;1.80;;;0.75;;
81396;SDS011;70852;49.908;8.126;2023-12-20T03:43:05;1.63;;;0.80;;
81396;SDS011;70852;49.908;8.126;2023-12-20T03:45:35;1.85;;;0.82;;
81396;SDS011;70852;49.908;8.126;2023-12-20T03:48:05;2.92;;;1.00;;
81396;SDS011;70852;49.908;8.126;2023-12-20T03:50:31;2.42;;;1.00;;
81396;SDS011;70852;49.908;8.126;2023-12-20T03:52:56;2.45;;;0.95;;
81396;SDS011;70852;49.908;8.126;2023-12-20T03:55:22;3.00;;;1.05;;
81396;SDS011;70852;49.908;8.126;2023-12-20T03:57:49;1.52;;;0.70;;
81396;SDS011;70852;49.908;8.126;2023-12-20T04:00:15;1.23;;;0.65;;
81396;SDS011;70852;49.908;8.126;2023-12-20T04:02:41;1.70;;;0.80;;
81396;SDS011;70852;49.908;8.126;2023-12-20T04:05:07;1.80;;;0.90;;
81396;SDS011;70852;49.908;8.126;2023-12-20T04:07:33;1.83;;;0.73;;
81396;SDS011;70852;49.908;8.126;2023-12-20T04:09:59;2.42;;;1.13;;
81396;SDS011;70852;49.908;8.126;2023-12-20T04:12:26;2.13;;;0.90;;
81396;SDS011;70852;49.908;8.126;2023-12-20T04:14:53;2.45;;;0.93;;
81396;SDS011;70852;49.908;8.126;2023-12-20T04:17:21;2.65;;;1.02;;
81396;SDS011;70852;49.908;8.126;2023-12-20T04:19:52;1.55;;;0.85;;
81396;SDS011;70852;49.908;8.126;2023-12-20T04:22:18;1.60;;;0.82;;
81396;SDS011;70852;49.908;8.126;2023-12-20T04:24:43;2.00;;;0.82;;
81396;SDS011;70852;49.908;8.126;2023-12-20T04:27:09;1.40;;;0.65;;
81396;SDS011;70852;49.908;8.126;2023-12-20T04:29:37;2.40;;;1.17;;
81396;SDS011;70852;49.908;8.126;2023-12-20T04:32:05;4.90;;;1.00;;
81396;SDS011;70852;49.908;8.126;2023-12-20T04:34:30;2.17;;;1.08;;
81396;SDS011;70852;49.908;8.126;2023-12-20T04:36:58;2.42;;;1.00;;
81396;SDS011;70852;49.908;8.126;2023-12-20T04:39:26;2.15;;;0.90;;
81396;SDS011;70852;49.908;8.126;2023-12-20T04:41:52;2.28;;;0.90;;
81396;SDS011;70852;49.908;8.126;2023-12-20T04:44:20;1.58;;;0.65;;
81396;SDS011;70852;49.908;8.126;2023-12-20T04:46:48;1.75;;;0.80;;
81396;SDS011;70852;49.908;8.126;2023-12-20T04:49:13;2.25;;;0.90;;
81396;SDS011;70852;49.908;8.126;2023-12-20T04:51:39;1.70;;;0.70;;
81396;SDS011;70852;49.908;8.126;2023-12-20T04:54:07;1.55;;;0.70;;
81396;SDS011;70852;49.908;8.126;2023-12-20T04:56:32;2.15;;;0.82;;
81396;SDS011;70852;49.908;8.126;2023-12-20T04:58:58;1.52;;;0.80;;
81396;SDS011;70852;49.908;8.126;2023-12-20T05:01:40;1.95;;;0.90;;
81396;SDS011;70852;49.908;8.126;2023-12-20T05:04:19;2.08;;;0.70;;
81396;SDS011;70852;49.908;8.126;2023-12-20T05:06:45;1.95;;;0.80;;
81396;SDS011;70852;49.908;8.126;2023-12-20T05:09:13;3.83;;;0.82;;
81396;SDS011;70852;49.908;8.126;2023-12-20T05:14:10;1.73;;;0.90;;
81396;SDS011;70852;49.908;8.126;2023-12-20T05:16:35;1.67;;;0.77;;
81396;SDS011;70852;49.908;8.126;2023-12-20T05:19:01;3.30;;;0.90;;
81396;SDS011;70852;49.908;8.126;2023-12-20T05:21:31;3.33;;;0.68;;
81396;SDS011;70852;49.908;8.126;2023-12-20T05:23:59;3.58;;;0.63;;
81396;SDS011;70852;49.908;8.126;2023-12-20T05:26:27;2.30;;;0.65;;
81396;SDS011;70852;49.908;8.126;2023-12-20T05:28:54;1.25;;;0.52;;
81396;SDS011;70852;49.908;8.126;2023-12-20T05:31:19;4.97;;;1.00;;
81396;SDS011;70852;49.908;8.126;2023-12-20T05:33:45;1.75;;;0.80;;
81396;SDS011;70852;49.908;8.126;2023-12-20T05:36:10;2.38;;;0.80;;
81396;SDS011;70852;49.908;8.126;2023-12-20T05:38:38;3.67;;;0.98;;
81396;SDS011;70852;49.908;8.126;2023-12-20T05:41:03;2.70;;;0.88;;
81396;SDS011;70852;49.908;8.126;2023-12-20T05:43:29;3.97;;;0.90;;
81396;SDS011;70852;49.908;8.126;2023-12-20T05:45:56;3.92;;;1.15;;
81396;SDS011;70852;49.908;8.126;2023-12-20T05:48:21;3.33;;;1.00;;
81396;SDS011;70852;49.908;8.126;2023-12-20T05:50:47;2.28;;;1.35;;
81396;SDS011;70852;49.908;8.126;2023-12-20T05:53:14;2.95;;;0.80;;
81396;SDS011;70852;49.908;8.126;2023-12-20T05:55:42;5.45;;;1.20;;
81396;SDS011;70852;49.908;8.126;2023-12-20T05:58:07;6.75;;;1.35;;
81396;SDS011;70852;49.908;8.126;2023-12-20T06:00:32;6.50;;;1.42;;
81396;SDS011;70852;49.908;8.126;2023-12-20T06:03:00;3.45;;;1.10;;
81396;SDS011;70852;49.908;8.126;2023-12-20T06:05:32;2.78;;;0.80;;
81396;SDS011;70852;49.908;8.126;2023-12-20T06:07:57;2.72;;;1.02;;
81396;SDS011;70852;49.908;8.126;2023-12-20T06:10:26;3.05;;;1.20;;
81396;SDS011;70852;49.908;8.126;2023-12-20T06:12:52;4.80;;;0.82;;
81396;SDS011;70852;49.908;8.126;2023-12-20T06:15:17;3.55;;;1.00;;
81396;SDS011;70852;49.908;8.126;2023-12-20T06:17:45;4.25;;;1.20;;
81396;SDS011;70852;49.908;8.126;2023-12-20T06:20:12;2.60;;;1.27;;
81396;SDS011;70852;49.908;8.126;2023-12-20T06:22:38;1.58;;;0.80;;
81396;SDS011;70852;49.908;8.126;2023-12-20T06:25:06;2.60;;;1.08;;
81396;SDS011;70852;49.908;8.126;2023-12-20T06:27:34;3.15;;;0.93;;
81396;SDS011;70852;49.908;8.126;2023-12-20T06:30:04;3.95;;;1.08;;
81396;SDS011;70852;49.908;8.126;2023-12-20T06:32:30;3.20;;;0.82;;
81396;SDS011;70852;49.908;8.126;2023-12-20T06:35:01;3.65;;;1.23;;
81396;SDS011;70852;49.908;8.126;2023-12-20T06:37:29;3.28;;;0.80;;
81396;SDS011;70852;49.908;8.126;2023-12-20T06:39:56;2.78;;;0.95;;
81396;SDS011;70852;49.908;8.126;2023-12-20T06:42:23;1.88;;;1.00;;
81396;SDS011;70852;49.908;8.126;2023-12-20T06:44:48;2.05;;;1.15;;
81396;SDS011;70852;49.908;8.126;2023-12-20T06:47:13;4.30;;;0.88;;
81396;SDS011;70852;49.908;8.126;2023-12-20T06:49:39;4.60;;;1.27;;
81396;SDS011;70852;49.908;8.126;2023-12-20T06:52:05;3.78;;;0.88;;
81396;SDS011;70852;49.908;8.126;2023-12-20T06:54:33;2.00;;;0.90;;
81396;SDS011;70852;49.908;8.126;2023-12-20T06:56:59;4.93;;;1.05;;
81396;SDS011;70852;49.908;8.126;2023-12-20T06:59:25;4.88;;;0.80;;
81396;SDS011;70852;49.908;8.126;2023-12-20T07:01:51;3.10;;;1.20;;
81396;SDS011;70852;49.908;8.126;2023-12-20T07:04:16;4.22;;;0.90;;
81396;SDS011;70852;49.908;8.126;2023-12-20T07:06:45;3.63;;;1.05;;
81396;SDS011;70852;49.908;8.126;2023-12-20T07:09:11;3.05;;;0.95;;
81396;SDS011;70852;49.908;8.126;2023-12-20T07:11:38;3.47;;;1.05;;
81396;SDS011;70852;49.908;8.126;2023-12-20T07:14:06;2.47;;;0.90;;
81396;SDS011;70852;49.908;8.126;2023-12-20T07:16:31;7.10;;;1.15;;
81396;SDS011;70852;49.908;8.126;2023-12-20T07:18:57;5.70;;;1.20;;
81396;SDS011;70852;49.908;8.126;2023-12-20T07:21:22;3.78;;;1.20;;
81396;SDS011;70852;49.908;8.126;2023-12-20T07:23:50;3.72;;;1.10;;
81396;SDS011;70852;49.908;8.126;2023-12-20T07:26:16;3.88;;;1.20;;
81396;SDS011;70852;49.908;8.126;2023-12-20T07:28:44;4.95;;;1.05;;
81396;SDS011;70852;49.908;8.126;2023-12-20T07:31:14;5.10;;;1.60;;
81396;SDS011;70852;49.908;8.126;2023-12-20T07:33:40;2.30;;;1.00;;
81396;SDS011;70852;49.908;8.126;2023-12-20T07:36:06;4.32;;;1.25;;
81396;SDS011;70852;49.908;8.126;2023-12-20T07:38:32;3.25;;;1.10;;
81396;SDS011;70852;49.908;8.126;2023-12-20T07:40:57;6.13;;;0.90;;
81396;SDS011;70852;49.908;8.126;2023-12-20T07:43:25;3.65;;;0.90;;
81396;SDS011;70852;49.908;8.126;2023-12-20T07:45:50;2.17;;;1.05;;
81396;SDS011;70852;49.908;8.126;2023-12-20T07:48:16;3.95;;;1.23;;
81396;SDS011;70852;49.908;8.126;2023-12-20T07:50:41;7.05;;;1.20;;
81396;SDS011;70852;49.908;8.126;2023-12-20T07:53:11;6.15;;;1.10;;
81396;SDS011;70852;49.908;8.126;2023-12-20T07:55:36;5.75;;;1.10;;
81396;SDS011;70852;49.908;8.126;2023-12-20T07:58:02;3.60;;;0.93;;
81396;SDS011;70852;49.908;8.126;2023-12-20T08:00:27;8.85;;;1.08;;
81396;SDS011;70852;49.908;8.126;2023-12-20T08:02:52;4.88;;;1.02;;
81396;SDS011;70852;49.908;8.126;2023-12-20T08:05:18;3.03;;;0.73;;
81396;SDS011;70852;49.908;8.126;2023-12-20T08:07:46;4.55;;;0.98;;
81396;SDS011;70852;49.908;8.126;2023-12-20T08:10:11;2.08;;;0.68;;
81396;SDS011;70852;49.908;8.126;2023-12-20T08:12:36;3.72;;;0.95;;
81396;SDS011;70852;49.908;8.126;2023-12-20T08:15:09;2.95;;;1.08;;
81396;SDS011;70852;49.908;8.126;2023-12-20T08:17:37;2.20;;;0.90;;
81396;SDS011;70852;49.908;8.126;2023-12-20T08:20:02;4.95;;;0.90;;
81396;SDS011;70852;49.908;8.126;2023-12-20T08:22:31;2.58;;;1.00;;
81396;SDS011;70852;49.908;8.126;2023-12-20T08:24:58;2.88;;;0.80;;
81396;SDS011;70852;49.908;8.126;2023-12-20T08:27:24;3.63;;;0.90;;
81396;SDS011;70852;49.908;8.126;2023-12-20T08:29:53;2.08;;;0.60;;
81396;SDS011;70852;49.908;8.126;2023-12-20T08:32:18;1.73;;;0.60;;
81396;SDS011;70852;49.908;8.126;2023-12-20T08:34:46;2.78;;;0.80;;
81396;SDS011;70852;49.908;8.126;2023-12-20T08:37:11;4.15;;;0.82;;
81396;SDS011;70852;49.908;8.126;2023-12-20T08:39:39;4.35;;;0.90;;
81396;SDS011;70852;49.908;8.126;2023-12-20T08:42:07;3.83;;;1.10;;
81396;SDS011;70852;49.908;8.126;2023-12-20T08:44:35;5.25;;;1.25;;
81396;SDS011;70852;49.908;8.126;2023-12-20T08:47:05;6.70;;;1.60;;
81396;SDS011;70852;49.908;8.126;2023-12-20T08:49:30;5.80;;;1.23;;
81396;SDS011;70852;49.908;8.126;2023-12-20T08:51:57;3.80;;;1.10;;
81396;SDS011;70852;49.908;8.126;2023-12-20T08:54:25;2.80;;;0.82;;
81396;SDS011;70852;49.908;8.126;2023-12-20T08:56:55;5.93;;;1.20;;
81396;SDS011;70852;49.908;8.126;2023-12-20T08:59:20;4.85;;;1.10;;
81396;SDS011;70852;49.908;8.126;2023-12-20T09:01:45;3.33;;;0.80;;
81396;SDS011;70852;49.908;8.126;2023-12-20T09:04:13;6.38;;;1.30;;
81396;SDS011;70852;49.908;8.126;2023-12-20T09:06:38;4.93;;;1.08;;
81396;SDS011;70852;49.908;8.126;2023-12-20T09:09:03;3.63;;;1.38;;
81396;SDS011;70852;49.908;8.126;2023-12-20T09:11:31;3.95;;;1.08;;
81396;SDS011;70852;49.908;8.126;2023-12-20T09:13:56;1.70;;;0.85;;
81396;SDS011;70852;49.908;8.126;2023-12-20T09:16:22;2.58;;;0.80;;
81396;SDS011;70852;49.908;8.126;2023-12-20T09:18:47;3.20;;;0.98;;
81396;SDS011;70852;49.908;8.126;2023-12-20T09:21:12;3.47;;;0.88;;
81396;SDS011;70852;49.908;8.126;2023-12-20T09:23:40;4.80;;;1.30;;
81396;SDS011;70852;49.908;8.126;2023-12-20T09:26:07;4.28;;;0.98;;
81396;SDS011;70852;49.908;8.126;2023-12-20T09:28:35;5.55;;;1.13;;
81396;SDS011;70852;49.908;8.126;2023-12-20T09:31:02;4.60;;;1.38;;
81396;SDS011;70852;49.908;8.126;2023-12-20T09:33:28;5.03;;;0.90;;
81396;SDS011;70852;49.908;8.126;2023-12-20T09:35:53;3.17;;;0.93;;
81396;SDS011;70852;49.908;8.126;2023-12-20T09:38:21;3.55;;;1.02;;
81396;SDS011;70852;49.908;8.126;2023-12-20T09:40:49;2.97;;;1.20;;
81396;SDS011;70852;49.908;8.126;2023-12-20T09:43:15;5.55;;;1.30;;
81396;SDS011;70852;49.908;8.126;2023-12-20T09:45:47;3.15;;;1.00;;
81396;SDS011;70852;49.908;8.126;2023-12-20T09:48:17;4.53;;;0.90;;
81396;SDS011;70852;49.908;8.126;2023-12-20T09:50:44;5.57;;;1.40;;
81396;SDS011;70852;49.908;8.126;2023-12-20T09:53:09;6.40;;;1.10;;
81396;SDS011;70852;49.908;8.126;2023-12-20T09:55:41;4.93;;;1.35;;
81396;SDS011;70852;49.908;8.126;2023-12-20T09:58:07;5.45;;;1.48;;
81396;SDS011;70852;49.908;8.126;2023-12-20T10:00:34;3.25;;;1.00;;
81396;SDS011;70852;49.908;8.126;2023-12-20T10:03:01;2.85;;;0.68;;
81396;SDS011;70852;49.908;8.126;2023-12-20T10:05:28;3.03;;;0.98;;
81396;SDS011;70852;49.908;8.126;2023-12-20T10:07:57;3.92;;;1.00;;
81396;SDS011;70852;49.908;8.126;2023-12-20T10:10:26;5.18;;;1.20;;
81396;SDS011;70852;49.908;8.126;2023-12-20T10:13:05;5.80;;;1.13;;
81396;SDS011;70852;49.908;8.126;2023-12-20T10:15:36;3.88;;;1.08;;
81396;SDS011;70852;49.908;8.126;2023-12-20T10:18:04;3.83;;;1.20;;
81396;SDS011;70852;49.908;8.126;2023-12-20T10:20:35;4.60;;;0.90;;
81396;SDS011;70852;49.908;8.126;2023-12-20T10:23:00;5.35;;;1.00;;
81396;SDS011;70852;49.908;8.126;2023-12-20T10:25:31;5.25;;;1.00;;
81396;SDS011;70852;49.908;8.126;2023-12-20T10:30:38;4.55;;;0.80;;
81396;SDS011;70852;49.908;8.126;2023-12-20T10:33:08;5.03;;;0.90;;
81396;SDS011;70852;49.908;8.126;2023-12-20T10:35:36;6.05;;;1.25;;
81396;SDS011;70852;49.908;8.126;2023-12-20T10:38:04;4.13;;;1.20;;
81396;SDS011;70852;49.908;8.126;2023-12-20T10:40:35;5.72;;;1.48;;
81396;SDS011;70852;49.908;8.126;2023-12-20T10:43:02;2.63;;;0.90;;
81396;SDS011;70852;49.908;8.126;2023-12-20T10:45:28;5.53;;;1.00;;
81396;SDS011;70852;49.908;8.126;2023-12-20T10:47:53;3.30;;;0.93;;
81396;SDS011;70852;49.908;8.126;2023-12-20T10:50:19;5.20;;;0.90;;
81396;SDS011;70852;49.908;8.126;2023-12-20T10:52:47;2.67;;;0.93;;
81396;SDS011;70852;49.908;8.126;2023-12-20T10:55:13;3.10;;;0.80;;
81396;SDS011;70852;49.908;8.126;2023-12-20T10:57:38;4.78;;;1.83;;
81396;SDS011;70852;49.908;8.126;2023-12-20T11:00:05;4.07;;;1.10;;
81396;SDS011;70852;49.908;8.126;2023-12-20T11:02:39;3.92;;;0.55;;
81396;SDS011;70852;49.908;8.126;2023-12-20T11:07:38;3.05;;;0.77;;
81396;SDS011;70852;49.908;8.126;2023-12-20T11:10:13;2.75;;;0.95;;
81396;SDS011;70852;49.908;8.126;2023-12-20T11:12:52;5.03;;;0.90;;
81396;SDS011;70852;49.908;8.126;2023-12-20T11:15:24;3.72;;;0.98;;
81396;SDS011;70852;49.908;8.126;2023-12-20T11:17:56;5.53;;;0.90;;
81396;SDS011;70852;49.908;8.126;2023-12-20T11:20:23;3.47;;;0.90;;
81396;SDS011;70852;49.908;8.126;2023-12-20T11:22:53;5.13;;;1.00;;
81396;SDS011;70852;49.908;8.126;2023-12-20T11:25:21;6.68;;;1.50;;
81396;SDS011;70852;49.908;8.126;2023-12-20T11:28:06;6.43;;;1.17;;
81396;SDS011;70852;49.908;8.126;2023-12-20T11:30:51;4.10;;;1.00;;
81396;SDS011;70852;49.908;8.126;2023-12-20T11:33:24;3.72;;;1.20;;
81396;SDS011;70852;49.908;8.126;2023-12-20T11:35:50;3.05;;;1.08;;
81396;SDS011;70852;49.908;8.126;2023-12-20T11:38:16;3.13;;;0.93;;
81396;SDS011;70852;49.908;8.126;2023-12-20T11:40:44;4.97;;;1.38;;
81396;SDS011;70852;49.908;8.126;2023-12-20T11:43:15;3.25;;;1.20;;
81396;SDS011;70852;49.908;8.126;2023-12-20T11:46:02;5.57;;;1.40;;
81396;SDS011;70852;49.908;8.126;2023-12-20T11:48:28;3.15;;;0.82;;
81396;SDS011;70852;49.908;8.126;2023-12-20T11:50:56;4.97;;;0.80;;
81396;SDS011;70852;49.908;8.126;2023-12-20T11:53:21;3.22;;;0.80;;
81396;SDS011;70852;49.908;8.126;2023-12-20T11:55:49;2.70;;;1.17;;
81396;SDS011;70852;49.908;8.126;2023-12-20T11:58:17;4.68;;;1.00;;
81396;SDS011;70852;49.908;8.126;2023-12-20T12:00:42;2.33;;;1.08;;
81396;SDS011;70852;49.908;8.126;2023-12-20T12:03:08;3.17;;;1.00;;
81396;SDS011;70852;49.908;8.126;2023-12-20T12:05:34;4.80;;;1.08;;
81396;SDS011;70852;49.908;8.126;2023-12-20T12:08:00;3.55;;;1.15;;
81396;SDS011;70852;49.908;8.126;2023-12-20T12:10:26;6.32;;;1.38;;
81396;SDS011;70852;49.908;8.126;2023-12-20T12:12:53;9.32;;;1.40;;
81396;SDS011;70852;49.908;8.126;2023-12-20T12:15:19;2.08;;;1.05;;
81396;SDS011;70852;49.908;8.126;2023-12-20T12:17:54;3.13;;;1.30;;
81396;SDS011;70852;49.908;8.126;2023-12-20T12:20:21;3.83;;;1.10;;
81396;SDS011;70852;49.908;8.126;2023-12-20T12:22:59;3.78;;;1.05;;
81396;SDS011;70852;49.908;8.126;2023-12-20T12:25:25;6.68;;;1.38;;
81396;SDS011;70852;49.908;8.126;2023-12-20T12:27:51;5.35;;;1.55;;
81396;SDS011;70852;49.908;8.126;2023-12-20T12:30:16;3.63;;;0.82;;
81396;SDS011;70852;49.908;8.126;2023-12-20T12:32:43;6.15;;;1.13;;
81396;SDS011;70852;49.908;8.126;2023-12-20T12:35:09;5.28;;;1.15;;
81396;SDS011;70852;49.908;8.126;2023-12-20T12:37:38;5.28;;;1.25;;
81396;SDS011;70852;49.908;8.126;2023-12-20T12:40:10;2.28;;;0.77;;
81396;SDS011;70852;49.908;8.126;2023-12-20T12:42:40;3.90;;;1.30;;
81396;SDS011;70852;49.908;8.126;2023-12-20T12:45:08;8.25;;;1.23;;
81396;SDS011;70852;49.908;8.126;2023-12-20T12:47:37;5.90;;;1.10;;
81396;SDS011;70852;49.908;8.126;2023-12-20T12:50:06;4.68;;;1.25;;
81396;SDS011;70852;49.908;8.126;2023-12-20T12:52:32;5.63;;;1.25;;
81396;SDS011;70852;49.908;8.126;2023-12-20T12:54:57;4.05;;;1.48;;
81396;SDS011;70852;49.908;8.126;2023-12-20T12:57:25;2.40;;;0.60;;
81396;SDS011;70852;49.908;8.126;2023-12-20T12:59:50;3.05;;;0.98;;
81396;SDS011;70852;49.908;8.126;2023-12-20T13:02:15;4.60;;;1.05;;
81396;SDS011;70852;49.908;8.126;2023-12-20T13:04:41;4.35;;;1.02;;
81396;SDS011;70852;49.908;8.126;2023-12-20T13:07:10;5.07;;;0.90;;
81396;SDS011;70852;49.908;8.126;2023-12-20T13:09:38;4.75;;;0.98;;
81396;SDS011;70852;49.908;8.126;2023-12-20T13:12:08;4.50;;;0.95;;
81396;SDS011;70852;49.908;8.126;2023-12-20T13:14:36;4.00;;;1.55;;
81396;SDS011;70852;49.908;8.126;2023-12-20T13:17:04;3.42;;;1.00;;
81396;SDS011;70852;49.908;8.126;2023-12-20T13:19:29;8.93;;;1.50;;
81396;SDS011;70852;49.908;8.126;2023-12-20T13:21:55;5.00;;;1.20;;
81396;SDS011;70852;49.908;8.126;2023-12-20T13:24:20;5.82;;;1.15;;
81396;SDS011;70852;49.908;8.126;2023-12-20T13:26:46;3.95;;;1.10;;
81396;SDS011;70852;49.908;8.126;2023-12-20T13:29:11;4.00;;;1.20;;
81396;SDS011;70852;49.908;8.126;2023-12-20T13:31:37;4.95;;;1.17;;
81396;SDS011;70852;49.908;8.126;2023-12-20T13:34:07;4.63;;;1.13;;
81396;SDS011;70852;49.908;8.126;2023-12-20T13:36:32;4.25;;;1.00;;
81396;SDS011;70852;49.908;8.126;2023-12-20T13:38:58;2.88;;;0.88;;
81396;SDS011;70852;49.908;8.126;2023-12-20T13:41:29;2.72;;;1.00;;
81396;SDS011;70852;49.908;8.126;2023-12-20T13:43:57;4.18;;;1.48;;
81396;SDS011;70852;49.908;8.126;2023-12-20T13:46:22;3.38;;;0.95;;
81396;SDS011;70852;49.908;8.126;2023-12-20T13:48:49;3.85;;;1.05;;
81396;SDS011;70852;49.908;8.126;2023-12-20T13:51:14;2.55;;;0.82;;
81396;SDS011;70852;49.908;8.126;2023-12-20T13:53:43;2.72;;;0.68;;
81396;SDS011;70852;49.908;8.126;2023-12-20T13:56:08;4.60;;;0.93;;
81396;SDS011;70852;49.908;8.126;2023-12-20T13:58:38;3.00;;;0.65;;
81396;SDS011;70852;49.908;8.126;2023-12-20T14:01:04;4.82;;;0.77;;
81396;SDS011;70852;49.908;8.126;2023-12-20T14:03:30;2.50;;;0.90;;
81396;SDS011;70852;49.908;8.126;2023-12-20T14:05:56;2.65;;;0.90;;
81396;SDS011;70852;49.908;8.126;2023-12-20T14:08:21;2.45;;;0.90;;
81396;SDS011;70852;49.908;8.126;2023-12-20T14:10:47;2.75;;;0.70;;
81396;SDS011;70852;49.908;8.126;2023-12-20T14:13:12;3.35;;;1.00;;
81396;SDS011;70852;49.908;8.126;2023-12-20T14:15:39;4.85;;;0.98;;
81396;SDS011;70852;49.908;8.126;2023-12-20T14:18:05;2.20;;;0.82;;
81396;SDS011;70852;49.908;8.126;2023-12-20T14:20:31;4.40;;;1.05;;
81396;SDS011;70852;49.908;8.126;2023-12-20T14:22:59;3.00;;;0.70;;
81396;SDS011;70852;49.908;8.126;2023-12-20T14:25:24;2.85;;;0.70;;
81396;SDS011;70852;49.908;8.126;2023-12-20T14:27:50;2.58;;;0.93;;
81396;SDS011;70852;49.908;8.126;2023-12-20T14:30:18;1.98;;;0.75;;
81396;SDS011;70852;49.908;8.126;2023-12-20T14:32:45;3.28;;;0.95;;
81396;SDS011;70852;49.908;8.126;2023-12-20T14:35:12;3.58;;;0.85;;
81396;SDS011;70852;49.908;8.126;2023-12-20T14:37:40;3.95;;;0.90;;
81396;SDS011;70852;49.908;8.126;2023-12-20T14:40:06;2.42;;;0.68;;
81396;SDS011;70852;49.908;8.126;2023-12-20T14:42:37;3.95;;;0.82;;
81396;SDS011;70852;49.908;8.126;2023-12-20T14:45:05;2.47;;;0.88;;
81396;SDS011;70852;49.908;8.126;2023-12-20T14:47:33;5.70;;;1.30;;
81396;SDS011;70852;49.908;8.126;2023-12-20T14:50:01;2.58;;;1.00;;
81396;SDS011;70852;49.908;8.126;2023-12-20T14:52:31;2.00;;;0.70;;
81396;SDS011;70852;49.908;8.126;2023-12-20T14:54:58;3.42;;;0.90;;